sensor_id;sensor_type;location;lat;lon;timestamp;pressure;altitude;pressure_sealevel;temperature;humidity
72428;BME280;60419;48.880;18.036;2024-01-15T00:00:23;97683.91;;;-0.87;70.00
72428;BME280;60419;48.880;18.036;2024-01-15T00:03:08;97671.94;;;-0.28;67.89
72428;BME280;60419;48.880;18.036;2024-01-15T00:05:54;97678.03;;;-0.22;68.15
72428;BME280;60419;48.880;18.036;2024-01-15T00:08:40;97671.41;;;-0.30;68.34
72428;BME280;60419;48.880;18.036;2024-01-15T00:11:25;97674.56;;;-0.13;66.87
72428;BME280;60419;48.880;18.036;2024-01-15T00:14:10;97657.56;;;-0.06;67.05
72428;BME280;60419;48.880;18.036;2024-01-15T00:16:57;97661.59;;;0.46;65.21
72428;BME280;60419;48.880;18.036;2024-01-15T00:19:42;97661.97;;;0.29;65.35
72428;BME280;60419;48.880;18.036;2024-01-15T00:22:27;97645.75;;;0.36;64.22
72428;BME280;60419;48.880;18.036;2024-01-15T00:25:13;97659.69;;;0.62;63.90
72428;BME280;60419;48.880;18.036;2024-01-15T00:27:58;97654.66;;;0.60;63.97
72428;BME280;60419;48.880;18.036;2024-01-15T00:30:44;97654.41;;;0.57;63.93
72428;BME280;60419;48.880;18.036;2024-01-15T00:33:29;97652.69;;;0.21;64.19
72428;BME280;60419;48.880;18.036;2024-01-15T00:36:14;97648.25;;;0.01;65.22
72428;BME280;60419;48.880;18.036;2024-01-15T00:39:01;97638.81;;;-0.66;67.64
72428;BME280;60419;48.880;18.036;2024-01-15T00:41:47;97633.72;;;-0.22;67.33
72428;BME280;60419;48.880;18.036;2024-01-15T00:44:32;97636.69;;;-0.59;68.05
72428;BME280;60419;48.880;18.036;2024-01-15T00:47:18;97633.00;;;-1.04;69.35
72428;BME280;60419;48.880;18.036;2024-01-15T00:50:04;97633.22;;;-1.16;69.69
72428;BME280;60419;48.880;18.036;2024-01-15T00:52:50;97644.94;;;-0.91;69.57
72428;BME280;60419;48.880;18.036;2024-01-15T00:55:35;97638.84;;;-0.76;69.26
72428;BME280;60419;48.880;18.036;2024-01-15T00:58:22;97634.56;;;-0.47;68.31
72428;BME280;60419;48.880;18.036;2024-01-15T01:01:07;97641.22;;;-0.70;68.38
72428;BME280;60419;48.880;18.036;2024-01-15T01:03:53;97621.06;;;-0.96;69.71
72428;BME280;60419;48.880;18.036;2024-01-15T01:06:38;97632.97;;;-1.19;70.98
72428;BME280;60419;48.880;18.036;2024-01-15T01:09:24;97625.81;;;-1.14;70.57
72428;BME280;60419;48.880;18.036;2024-01-15T01:12:09;97623.19;;;-0.88;70.48
72428;BME280;60419;48.880;18.036;2024-01-15T01:14:55;97618.88;;;-0.38;68.06
72428;BME280;60419;48.880;18.036;2024-01-15T01:17:41;97610.19;;;-0.80;69.38
72428;BME280;60419;48.880;18.036;2024-01-15T01:20:26;97588.44;;;-0.71;68.39
72428;BME280;60419;48.880;18.036;2024-01-15T01:23:12;97597.75;;;-0.74;69.04
72428;BME280;60419;48.880;18.036;2024-01-15T01:25:57;97590.56;;;-0.68;69.23
72428;BME280;60419;48.880;18.036;2024-01-15T01:28:42;97592.69;;;-0.81;68.99
72428;BME280;60419;48.880;18.036;2024-01-15T01:31:28;97590.06;;;-1.01;70.64
72428;BME280;60419;48.880;18.036;2024-01-15T01:34:14;97577.09;;;-1.18;70.01
72428;BME280;60419;48.880;18.036;2024-01-15T01:37:00;97573.06;;;-0.74;69.91
72428;BME280;60419;48.880;18.036;2024-01-15T01:39:45;97573.63;;;-1.08;70.02
72428;BME280;60419;48.880;18.036;2024-01-15T01:42:31;97571.75;;;-0.77;68.93
72428;BME280;60419;48.880;18.036;2024-01-15T01:45:16;97576.00;;;-0.76;69.49
72428;BME280;60419;48.880;18.036;2024-01-15T01:48:02;97567.53;;;-1.14;70.84
72428;BME280;60419;48.880;18.036;2024-01-15T01:50:48;97568.31;;;-0.93;70.02
72428;BME280;60419;48.880;18.036;2024-01-15T01:53:35;97564.88;;;-1.09;70.11
72428;BME280;60419;48.880;18.036;2024-01-15T01:56:22;97555.09;;;-1.34;70.66
72428;BME280;60419;48.880;18.036;2024-01-15T01:59:09;97549.75;;;-1.08;71.01
72428;BME280;60419;48.880;18.036;2024-01-15T02:01:56;97535.16;;;-0.85;69.94
72428;BME280;60419;48.880;18.036;2024-01-15T02:04:42;97546.59;;;-1.15;70.41
72428;BME280;60419;48.880;18.036;2024-01-15T02:07:28;97525.94;;;-1.44;71.20
72428;BME280;60419;48.880;18.036;2024-01-15T02:10:14;97504.22;;;-1.10;70.65
72428;BME280;60419;48.880;18.036;2024-01-15T02:12:59;97520.88;;;-0.99;69.99
72428;BME280;60419;48.880;18.036;2024-01-15T02:15:45;97485.06;;;-0.76;69.46
72428;BME280;60419;48.880;18.036;2024-01-15T02:18:40;97515.19;;;-0.52;68.59
72428;BME280;60419;48.880;18.036;2024-01-15T02:21:25;97516.06;;;-0.82;68.76
72428;BME280;60419;48.880;18.036;2024-01-15T02:24:13;97525.06;;;-0.68;69.54
72428;BME280;60419;48.880;18.036;2024-01-15T02:26:59;97521.28;;;-0.51;68.59
72428;BME280;60419;48.880;18.036;2024-01-15T02:29:45;97508.56;;;-0.49;69.00
72428;BME280;60419;48.880;18.036;2024-01-15T02:32:30;97511.50;;;-0.61;68.65
72428;BME280;60419;48.880;18.036;2024-01-15T02:35:15;97503.28;;;-0.60;69.48
72428;BME280;60419;48.880;18.036;2024-01-15T02:38:01;97501.91;;;-0.47;68.63
72428;BME280;60419;48.880;18.036;2024-01-15T02:40:47;97499.06;;;-0.66;69.29
72428;BME280;60419;48.880;18.036;2024-01-15T02:43:32;97505.50;;;-0.97;70.85
72428;BME280;60419;48.880;18.036;2024-01-15T02:46:17;97499.09;;;-0.71;69.40
72428;BME280;60419;48.880;18.036;2024-01-15T02:49:03;97506.19;;;-0.56;68.64
72428;BME280;60419;48.880;18.036;2024-01-15T02:51:48;97500.84;;;-0.46;68.43
72428;BME280;60419;48.880;18.036;2024-01-15T02:54:34;97494.25;;;-0.53;68.73
72428;BME280;60419;48.880;18.036;2024-01-15T02:57:19;97490.69;;;-0.28;68.25
72428;BME280;60419;48.880;18.036;2024-01-15T03:00:05;97485.75;;;-0.45;68.59
72428;BME280;60419;48.880;18.036;2024-01-15T03:02:51;97483.44;;;-0.72;69.59
72428;BME280;60419;48.880;18.036;2024-01-15T03:05:36;97468.66;;;-0.94;70.64
72428;BME280;60419;48.880;18.036;2024-01-15T03:08:22;97468.09;;;-0.91;70.26
72428;BME280;60419;48.880;18.036;2024-01-15T03:11:07;97451.47;;;-1.12;71.06
72428;BME280;60419;48.880;18.036;2024-01-15T03:13:53;97461.03;;;-1.77;73.91
72428;BME280;60419;48.880;18.036;2024-01-15T03:16:38;97450.47;;;-1.57;73.86
72428;BME280;60419;48.880;18.036;2024-01-15T03:19:24;97431.13;;;-1.88;75.33
72428;BME280;60419;48.880;18.036;2024-01-15T03:22:09;97428.47;;;-1.62;73.77
72428;BME280;60419;48.880;18.036;2024-01-15T03:24:54;97441.16;;;-1.90;75.24
72428;BME280;60419;48.880;18.036;2024-01-15T03:27:40;97413.91;;;-2.11;76.32
72428;BME280;60419;48.880;18.036;2024-01-15T03:30:25;97439.03;;;-2.08;75.70
72428;BME280;60419;48.880;18.036;2024-01-15T03:33:10;97451.16;;;-2.23;76.75
72428;BME280;60419;48.880;18.036;2024-01-15T03:35:56;97436.66;;;-2.05;76.25
72428;BME280;60419;48.880;18.036;2024-01-15T03:38:41;97437.97;;;-1.97;76.07
72428;BME280;60419;48.880;18.036;2024-01-15T03:41:27;97434.78;;;-2.20;77.07
72428;BME280;60419;48.880;18.036;2024-01-15T03:44:12;97426.09;;;-1.64;74.72
72428;BME280;60419;48.880;18.036;2024-01-15T03:46:58;97431.38;;;-1.79;74.78
72428;BME280;60419;48.880;18.036;2024-01-15T03:49:43;97417.34;;;-1.75;75.14
72428;BME280;60419;48.880;18.036;2024-01-15T03:52:29;97429.25;;;-2.03;75.29
72428;BME280;60419;48.880;18.036;2024-01-15T03:55:14;97434.47;;;-2.34;76.41
72428;BME280;60419;48.880;18.036;2024-01-15T03:58:00;97435.66;;;-2.77;78.84
72428;BME280;60419;48.880;18.036;2024-01-15T04:00:45;97444.56;;;-2.93;79.61
72428;BME280;60419;48.880;18.036;2024-01-15T04:03:30;97444.38;;;-2.77;79.54
72428;BME280;60419;48.880;18.036;2024-01-15T04:06:16;97433.13;;;-2.46;79.11
72428;BME280;60419;48.880;18.036;2024-01-15T04:09:02;97446.94;;;-2.19;77.98
72428;BME280;60419;48.880;18.036;2024-01-15T04:11:48;97436.41;;;-1.88;76.22
72428;BME280;60419;48.880;18.036;2024-01-15T04:14:33;97446.72;;;-1.81;76.37
72428;BME280;60419;48.880;18.036;2024-01-15T04:17:18;97441.97;;;-1.69;75.54
72428;BME280;60419;48.880;18.036;2024-01-15T04:20:04;97443.03;;;-1.96;75.97
72428;BME280;60419;48.880;18.036;2024-01-15T04:22:50;97451.47;;;-2.09;76.24
72428;BME280;60419;48.880;18.036;2024-01-15T04:25:35;97434.78;;;-2.04;76.38
72428;BME280;60419;48.880;18.036;2024-01-15T04:28:21;97435.56;;;-2.19;76.35
72428;BME280;60419;48.880;18.036;2024-01-15T04:31:06;97423.69;;;-2.17;76.90
72428;BME280;60419;48.880;18.036;2024-01-15T04:33:51;97433.66;;;-2.39;77.20
72428;BME280;60419;48.880;18.036;2024-01-15T04:36:40;97434.53;;;-2.08;76.85
72428;BME280;60419;48.880;18.036;2024-01-15T04:39:26;97431.38;;;-1.95;76.12
72428;BME280;60419;48.880;18.036;2024-01-15T04:42:11;97429.53;;;-1.69;74.69
72428;BME280;60419;48.880;18.036;2024-01-15T04:44:58;97411.50;;;-2.02;75.27
72428;BME280;60419;48.880;18.036;2024-01-15T04:47:43;97392.97;;;-1.56;74.15
72428;BME280;60419;48.880;18.036;2024-01-15T04:50:28;97409.41;;;-1.39;73.18
72428;BME280;60419;48.880;18.036;2024-01-15T04:53:14;97426.84;;;-1.17;71.93
72428;BME280;60419;48.880;18.036;2024-01-15T04:55:59;97419.69;;;-1.37;72.62
72428;BME280;60419;48.880;18.036;2024-01-15T04:58:44;97423.41;;;-1.28;72.78
72428;BME280;60419;48.880;18.036;2024-01-15T05:01:33;97421.53;;;-1.23;72.98
72428;BME280;60419;48.880;18.036;2024-01-15T05:04:18;97419.88;;;-0.98;72.12
72428;BME280;60419;48.880;18.036;2024-01-15T05:07:04;97410.72;;;-1.47;73.51
72428;BME280;60419;48.880;18.036;2024-01-15T05:09:49;97414.16;;;-1.56;73.63
72428;BME280;60419;48.880;18.036;2024-01-15T05:12:34;97412.31;;;-1.86;74.23
72428;BME280;60419;48.880;18.036;2024-01-15T05:15:20;97404.63;;;-2.03;73.84
72428;BME280;60419;48.880;18.036;2024-01-15T05:18:05;97403.28;;;-2.21;74.74
72428;BME280;60419;48.880;18.036;2024-01-15T05:20:51;97403.03;;;-2.30;75.50
72428;BME280;60419;48.880;18.036;2024-01-15T05:23:38;97412.19;;;-2.63;77.00
72428;BME280;60419;48.880;18.036;2024-01-15T05:26:23;97404.88;;;-3.04;77.78
72428;BME280;60419;48.880;18.036;2024-01-15T05:29:08;97405.03;;;-2.63;77.31
72428;BME280;60419;48.880;18.036;2024-01-15T05:31:54;97407.94;;;-2.69;77.20
72428;BME280;60419;48.880;18.036;2024-01-15T05:34:40;97411.16;;;-2.52;76.64
72428;BME280;60419;48.880;18.036;2024-01-15T05:37:25;97404.53;;;-2.60;77.22
72428;BME280;60419;48.880;18.036;2024-01-15T05:40:12;97405.88;;;-2.52;76.14
72428;BME280;60419;48.880;18.036;2024-01-15T05:42:58;97414.31;;;-2.55;76.22
72428;BME280;60419;48.880;18.036;2024-01-15T05:45:43;97409.00;;;-2.65;75.90
72428;BME280;60419;48.880;18.036;2024-01-15T05:48:29;97414.31;;;-2.60;76.80
72428;BME280;60419;48.880;18.036;2024-01-15T05:51:15;97424.28;;;-2.78;76.75
72428;BME280;60419;48.880;18.036;2024-01-15T05:54:00;97429.00;;;-2.06;74.94
72428;BME280;60419;48.880;18.036;2024-01-15T05:56:45;97442.97;;;-2.16;73.62
72428;BME280;60419;48.880;18.036;2024-01-15T05:59:31;97462.41;;;-2.63;75.36
72428;BME280;60419;48.880;18.036;2024-01-15T06:02:19;97460.97;;;-2.13;74.84
72428;BME280;60419;48.880;18.036;2024-01-15T06:05:04;97444.78;;;-0.89;83.95
72428;BME280;60419;48.880;18.036;2024-01-15T06:07:51;97449.06;;;-1.08;74.05
72428;BME280;60419;48.880;18.036;2024-01-15T06:10:36;97441.97;;;-1.43;73.46
72428;BME280;60419;48.880;18.036;2024-01-15T06:13:22;97455.28;;;-0.58;82.11
72428;BME280;60419;48.880;18.036;2024-01-15T06:16:14;97457.59;;;-1.52;73.94
72428;BME280;60419;48.880;18.036;2024-01-15T06:19:01;97455.22;;;-1.64;73.32
72428;BME280;60419;48.880;18.036;2024-01-15T06:21:47;97454.41;;;-1.85;75.10
72428;BME280;60419;48.880;18.036;2024-01-15T06:24:32;97450.38;;;-2.23;75.46
72428;BME280;60419;48.880;18.036;2024-01-15T06:27:17;97445.59;;;-3.00;79.49
72428;BME280;60419;48.880;18.036;2024-01-15T06:30:03;97445.53;;;-3.10;79.50
72428;BME280;60419;48.880;18.036;2024-01-15T06:32:49;97439.91;;;-3.24;80.14
72428;BME280;60419;48.880;18.036;2024-01-15T06:35:35;97443.22;;;-3.44;81.73
72428;BME280;60419;48.880;18.036;2024-01-15T06:38:20;97453.91;;;-3.23;81.18
72428;BME280;60419;48.880;18.036;2024-01-15T06:41:06;97456.44;;;-2.38;86.13
72428;BME280;60419;48.880;18.036;2024-01-15T06:43:51;97487.75;;;-2.67;80.84
72428;BME280;60419;48.880;18.036;2024-01-15T06:46:37;97490.44;;;-3.10;80.00
72428;BME280;60419;48.880;18.036;2024-01-15T06:49:22;97470.72;;;-2.97;79.83
72428;BME280;60419;48.880;18.036;2024-01-15T06:52:08;97468.06;;;-2.97;79.24
72428;BME280;60419;48.880;18.036;2024-01-15T06:54:53;97474.81;;;-3.16;80.01
72428;BME280;60419;48.880;18.036;2024-01-15T06:57:38;97471.03;;;-3.31;80.84
72428;BME280;60419;48.880;18.036;2024-01-15T07:00:25;97479.84;;;-3.15;81.08
72428;BME280;60419;48.880;18.036;2024-01-15T07:03:11;97488.81;;;-3.16;80.69
72428;BME280;60419;48.880;18.036;2024-01-15T07:05:56;97475.06;;;-3.18;80.54
72428;BME280;60419;48.880;18.036;2024-01-15T07:08:42;97463.84;;;-2.98;80.00
72428;BME280;60419;48.880;18.036;2024-01-15T07:11:27;97467.25;;;-3.03;80.63
72428;BME280;60419;48.880;18.036;2024-01-15T07:14:13;97472.69;;;-2.72;80.21
72428;BME280;60419;48.880;18.036;2024-01-15T07:16:58;97467.91;;;-1.56;86.54
72428;BME280;60419;48.880;18.036;2024-01-15T07:19:43;97475.25;;;-0.81;85.95
72428;BME280;60419;48.880;18.036;2024-01-15T07:22:29;97478.03;;;0.08;82.80
72428;BME280;60419;48.880;18.036;2024-01-15T07:25:15;97477.81;;;-0.55;74.07
72428;BME280;60419;48.880;18.036;2024-01-15T07:28:01;97467.97;;;-0.45;68.10
72428;BME280;60419;48.880;18.036;2024-01-15T07:30:46;97486.66;;;-0.81;68.15
72428;BME280;60419;48.880;18.036;2024-01-15T07:33:32;97490.38;;;-0.82;68.89
72428;BME280;60419;48.880;18.036;2024-01-15T07:36:17;97502.06;;;-1.08;69.02
72428;BME280;60419;48.880;18.036;2024-01-15T07:39:03;97498.97;;;-0.40;68.01
72428;BME280;60419;48.880;18.036;2024-01-15T07:41:48;97496.16;;;-0.74;67.78
72428;BME280;60419;48.880;18.036;2024-01-15T07:44:33;97495.91;;;-0.73;66.82
72428;BME280;60419;48.880;18.036;2024-01-15T07:47:19;97512.34;;;-0.71;67.03
72428;BME280;60419;48.880;18.036;2024-01-15T07:50:05;97491.47;;;-1.13;68.02
72428;BME280;60419;48.880;18.036;2024-01-15T07:52:50;97517.41;;;-0.90;66.84
72428;BME280;60419;48.880;18.036;2024-01-15T07:55:36;97514.75;;;-0.85;66.78
72428;BME280;60419;48.880;18.036;2024-01-15T07:58:21;97507.06;;;-0.86;65.74
72428;BME280;60419;48.880;18.036;2024-01-15T08:01:07;97504.13;;;-0.80;66.02
72428;BME280;60419;48.880;18.036;2024-01-15T08:03:52;97511.38;;;-1.52;66.75
72428;BME280;60419;48.880;18.036;2024-01-15T08:06:38;97512.16;;;-1.15;66.29
72428;BME280;60419;48.880;18.036;2024-01-15T08:09:24;97518.78;;;-1.23;65.94
72428;BME280;60419;48.880;18.036;2024-01-15T08:12:09;97522.22;;;-1.12;65.45
72428;BME280;60419;48.880;18.036;2024-01-15T08:14:55;97523.78;;;-1.06;66.21
72428;BME280;60419;48.880;18.036;2024-01-15T08:17:40;97520.09;;;-1.26;66.65
72428;BME280;60419;48.880;18.036;2024-01-15T08:20:25;97520.91;;;-1.20;65.00
72428;BME280;60419;48.880;18.036;2024-01-15T08:23:11;97526.69;;;-0.97;64.49
72428;BME280;60419;48.880;18.036;2024-01-15T08:25:56;97515.59;;;-1.15;64.75
72428;BME280;60419;48.880;18.036;2024-01-15T08:28:42;97514.75;;;-0.95;64.17
72428;BME280;60419;48.880;18.036;2024-01-15T08:31:27;97510.56;;;-1.27;65.21
72428;BME280;60419;48.880;18.036;2024-01-15T08:34:13;97504.72;;;-1.24;65.43
72428;BME280;60419;48.880;18.036;2024-01-15T08:36:58;97510.28;;;-1.51;65.27
72428;BME280;60419;48.880;18.036;2024-01-15T08:39:43;97522.22;;;-1.17;64.62
72428;BME280;60419;48.880;18.036;2024-01-15T08:42:29;97513.19;;;-1.11;64.18
72428;BME280;60419;48.880;18.036;2024-01-15T08:45:15;97506.59;;;-1.24;64.47
72428;BME280;60419;48.880;18.036;2024-01-15T08:48:00;97538.66;;;-1.10;64.58
72428;BME280;60419;48.880;18.036;2024-01-15T08:50:46;97535.19;;;-1.21;64.69
72428;BME280;60419;48.880;18.036;2024-01-15T08:53:31;97541.81;;;-0.93;64.22
72428;BME280;60419;48.880;18.036;2024-01-15T08:56:17;97549.22;;;-0.95;63.75
72428;BME280;60419;48.880;18.036;2024-01-15T08:59:03;97557.69;;;-0.88;63.65
72428;BME280;60419;48.880;18.036;2024-01-15T09:01:48;97550.81;;;-0.84;63.09
72428;BME280;60419;48.880;18.036;2024-01-15T09:04:33;97553.72;;;-0.80;63.57
72428;BME280;60419;48.880;18.036;2024-01-15T09:07:19;97537.56;;;-0.89;63.56
72428;BME280;60419;48.880;18.036;2024-01-15T09:10:04;97542.09;;;-1.25;64.54
72428;BME280;60419;48.880;18.036;2024-01-15T09:12:50;97530.41;;;-1.04;63.38
72428;BME280;60419;48.880;18.036;2024-01-15T09:15:36;97543.41;;;-1.17;64.35
72428;BME280;60419;48.880;18.036;2024-01-15T09:18:21;97513.44;;;-0.97;63.83
72428;BME280;60419;48.880;18.036;2024-01-15T09:21:06;97524.31;;;-0.89;63.37
72428;BME280;60419;48.880;18.036;2024-01-15T09:23:52;97538.59;;;-0.85;63.51
72428;BME280;60419;48.880;18.036;2024-01-15T09:26:37;97413.63;;;-1.69;63.63
72428;BME280;60419;48.880;18.036;2024-01-15T09:29:23;97498.09;;;-1.11;63.44
72428;BME280;60419;48.880;18.036;2024-01-15T09:32:08;97523.22;;;-0.83;63.51
72428;BME280;60419;48.880;18.036;2024-01-15T09:34:54;97532.00;;;-0.97;64.00
72428;BME280;60419;48.880;18.036;2024-01-15T09:37:41;97510.53;;;-1.01;63.35
72428;BME280;60419;48.880;18.036;2024-01-15T09:40:30;97517.91;;;-0.72;63.38
72428;BME280;60419;48.880;18.036;2024-01-15T09:43:16;97516.38;;;-0.94;63.89
72428;BME280;60419;48.880;18.036;2024-01-15T09:46:02;97514.69;;;-0.59;62.80
72428;BME280;60419;48.880;18.036;2024-01-15T09:48:48;97515.22;;;-0.57;62.13
72428;BME280;60419;48.880;18.036;2024-01-15T09:51:35;97509.63;;;-0.50;62.45
72428;BME280;60419;48.880;18.036;2024-01-15T09:54:21;97506.22;;;-0.71;63.43
72428;BME280;60419;48.880;18.036;2024-01-15T09:57:07;97495.38;;;-0.80;63.40
72428;BME280;60419;48.880;18.036;2024-01-15T09:59:53;97488.78;;;-0.88;64.40
72428;BME280;60419;48.880;18.036;2024-01-15T10:02:39;97495.91;;;-0.73;63.65
72428;BME280;60419;48.880;18.036;2024-01-15T10:05:25;97498.25;;;-0.61;63.57
72428;BME280;60419;48.880;18.036;2024-01-15T10:08:11;97501.41;;;-0.54;62.74
72428;BME280;60419;48.880;18.036;2024-01-15T10:10:56;97490.06;;;-0.70;63.59
72428;BME280;60419;48.880;18.036;2024-01-15T10:13:46;97486.09;;;-0.07;61.83
72428;BME280;60419;48.880;18.036;2024-01-15T10:16:31;97483.78;;;-0.24;62.55
72428;BME280;60419;48.880;18.036;2024-01-15T10:19:17;97475.88;;;-0.35;63.26
72428;BME280;60419;48.880;18.036;2024-01-15T10:22:02;97482.31;;;-0.56;63.42
72428;BME280;60419;48.880;18.036;2024-01-15T10:24:48;97455.56;;;-0.60;63.07
72428;BME280;60419;48.880;18.036;2024-01-15T10:27:34;97480.13;;;-0.33;62.61
72428;BME280;60419;48.880;18.036;2024-01-15T10:30:19;97475.75;;;-0.14;62.29
72428;BME280;60419;48.880;18.036;2024-01-15T10:33:05;97466.78;;;-0.23;62.41
72428;BME280;60419;48.880;18.036;2024-01-15T10:35:50;97469.25;;;-0.37;62.87
72428;BME280;60419;48.880;18.036;2024-01-15T10:38:36;97479.22;;;-0.14;62.53
72428;BME280;60419;48.880;18.036;2024-01-15T10:41:21;97469.50;;;-0.33;62.98
72428;BME280;60419;48.880;18.036;2024-01-15T10:44:07;97462.94;;;-0.02;63.18
72428;BME280;60419;48.880;18.036;2024-01-15T10:46:53;97477.06;;;-0.12;63.21
72428;BME280;60419;48.880;18.036;2024-01-15T10:49:40;97468.09;;;-0.21;63.81
72428;BME280;60419;48.880;18.036;2024-01-15T10:52:27;97466.00;;;-0.24;64.53
72428;BME280;60419;48.880;18.036;2024-01-15T10:55:13;97466.91;;;0.01;63.70
72428;BME280;60419;48.880;18.036;2024-01-15T10:57:59;97472.00;;;-0.03;63.90
72428;BME280;60419;48.880;18.036;2024-01-15T11:00:46;97472.19;;;0.06;63.67
72428;BME280;60419;48.880;18.036;2024-01-15T11:03:32;97468.31;;;-0.12;64.36
72428;BME280;60419;48.880;18.036;2024-01-15T11:06:19;97450.63;;;-0.22;64.76
72428;BME280;60419;48.880;18.036;2024-01-15T11:09:05;97455.47;;;0.05;64.33
72428;BME280;60419;48.880;18.036;2024-01-15T11:11:54;97449.31;;;-0.24;64.68
72428;BME280;60419;48.880;18.036;2024-01-15T11:14:51;97452.16;;;-0.16;64.06
72428;BME280;60419;48.880;18.036;2024-01-15T11:17:59;97460.09;;;-0.10;63.52
72428;BME280;60419;48.880;18.036;2024-01-15T11:24:01;97439.88;;;-0.06;63.09
72428;BME280;60419;48.880;18.036;2024-01-15T11:26:47;97448.06;;;0.02;63.31
72428;BME280;60419;48.880;18.036;2024-01-15T11:29:36;97453.50;;;-0.18;63.40
72428;BME280;60419;48.880;18.036;2024-01-15T11:32:33;97453.13;;;-0.01;62.91
72428;BME280;60419;48.880;18.036;2024-01-15T11:35:18;97453.69;;;-0.04;63.05
72428;BME280;60419;48.880;18.036;2024-01-15T11:38:04;97445.38;;;0.07;62.91
72428;BME280;60419;48.880;18.036;2024-01-15T11:40:50;97447.91;;;-0.17;63.84
72428;BME280;60419;48.880;18.036;2024-01-15T11:43:36;97456.19;;;0.16;63.12
72428;BME280;60419;48.880;18.036;2024-01-15T11:46:25;97444.09;;;-0.00;63.90
72428;BME280;60419;48.880;18.036;2024-01-15T11:49:26;97430.38;;;0.27;62.65
72428;BME280;60419;48.880;18.036;2024-01-15T11:52:21;97434.03;;;0.36;62.75
72428;BME280;60419;48.880;18.036;2024-01-15T11:57:53;97406.94;;;0.34;63.02
72428;BME280;60419;48.880;18.036;2024-01-15T12:00:43;97408.72;;;0.73;61.90
72428;BME280;60419;48.880;18.036;2024-01-15T12:03:32;97418.56;;;0.72;61.38
72428;BME280;60419;48.880;18.036;2024-01-15T12:06:17;97414.81;;;0.73;62.03
72428;BME280;60419;48.880;18.036;2024-01-15T12:09:08;97418.63;;;0.67;61.82
72428;BME280;60419;48.880;18.036;2024-01-15T12:12:00;97418.53;;;0.43;62.56
72428;BME280;60419;48.880;18.036;2024-01-15T12:14:50;97409.44;;;0.55;62.32
72428;BME280;60419;48.880;18.036;2024-01-15T12:17:36;97407.38;;;0.46;62.41
72428;BME280;60419;48.880;18.036;2024-01-15T12:20:21;97400.50;;;0.40;62.96
72428;BME280;60419;48.880;18.036;2024-01-15T12:23:08;97386.94;;;0.71;61.87
72428;BME280;60419;48.880;18.036;2024-01-15T12:25:53;97357.50;;;0.91;61.29
72428;BME280;60419;48.880;18.036;2024-01-15T12:28:39;97373.03;;;1.03;60.90
72428;BME280;60419;48.880;18.036;2024-01-15T12:31:24;97364.94;;;1.13;60.54
72428;BME280;60419;48.880;18.036;2024-01-15T12:34:10;97362.50;;;1.17;60.07
72428;BME280;60419;48.880;18.036;2024-01-15T12:36:57;97351.63;;;1.56;59.71
72428;BME280;60419;48.880;18.036;2024-01-15T12:39:43;97350.19;;;1.45;59.22
72428;BME280;60419;48.880;18.036;2024-01-15T12:42:29;97351.97;;;1.50;59.40
72428;BME280;60419;48.880;18.036;2024-01-15T12:45:14;97355.75;;;1.81;58.35
72428;BME280;60419;48.880;18.036;2024-01-15T12:48:00;97356.13;;;0.94;61.45
72428;BME280;60419;48.880;18.036;2024-01-15T12:50:46;97360.94;;;0.68;62.06
72428;BME280;60419;48.880;18.036;2024-01-15T12:53:32;97362.81;;;0.67;61.66
72428;BME280;60419;48.880;18.036;2024-01-15T12:56:17;97362.34;;;0.84;61.38
72428;BME280;60419;48.880;18.036;2024-01-15T12:59:03;97361.03;;;0.82;61.25
72428;BME280;60419;48.880;18.036;2024-01-15T13:01:48;97349.94;;;0.74;62.26
72428;BME280;60419;48.880;18.036;2024-01-15T13:04:34;97347.59;;;0.97;61.81
72428;BME280;60419;48.880;18.036;2024-01-15T13:07:20;97356.75;;;1.29;60.16
72428;BME280;60419;48.880;18.036;2024-01-15T13:10:06;97350.66;;;1.28;60.25
72428;BME280;60419;48.880;18.036;2024-01-15T13:12:51;97352.13;;;1.58;59.05
72428;BME280;60419;48.880;18.036;2024-01-15T13:15:37;97353.91;;;1.44;59.22
72428;BME280;60419;48.880;18.036;2024-01-15T13:18:22;97350.38;;;1.06;60.59
72428;BME280;60419;48.880;18.036;2024-01-15T13:21:07;97360.00;;;1.26;59.78
72428;BME280;60419;48.880;18.036;2024-01-15T13:23:53;97356.06;;;1.42;59.78
72428;BME280;60419;48.880;18.036;2024-01-15T13:26:39;97354.03;;;1.34;58.75
72428;BME280;60419;48.880;18.036;2024-01-15T13:29:24;97345.59;;;1.27;58.31
72428;BME280;60419;48.880;18.036;2024-01-15T13:32:11;97347.66;;;1.35;58.48
72428;BME280;60419;48.880;18.036;2024-01-15T13:34:59;97357.47;;;1.15;58.14
72428;BME280;60419;48.880;18.036;2024-01-15T13:37:45;97347.47;;;1.07;58.44
72428;BME280;60419;48.880;18.036;2024-01-15T13:40:30;97355.44;;;1.69;57.24
72428;BME280;60419;48.880;18.036;2024-01-15T13:43:16;97347.94;;;1.52;57.02
72428;BME280;60419;48.880;18.036;2024-01-15T13:46:01;97340.22;;;1.32;57.39
72428;BME280;60419;48.880;18.036;2024-01-15T13:48:50;97327.22;;;1.11;57.05
72428;BME280;60419;48.880;18.036;2024-01-15T13:51:35;97353.00;;;1.11;57.93
72428;BME280;60419;48.880;18.036;2024-01-15T13:54:21;97356.25;;;1.27;57.36
72428;BME280;60419;48.880;18.036;2024-01-15T13:57:07;97357.63;;;1.24;57.52
72428;BME280;60419;48.880;18.036;2024-01-15T13:59:52;97354.22;;;1.43;56.78
72428;BME280;60419;48.880;18.036;2024-01-15T14:02:37;97354.59;;;1.12;57.19
72428;BME280;60419;48.880;18.036;2024-01-15T14:05:23;97351.69;;;1.08;57.06
72428;BME280;60419;48.880;18.036;2024-01-15T14:08:09;97370.72;;;0.96;56.81
72428;BME280;60419;48.880;18.036;2024-01-15T14:10:54;97374.53;;;0.90;56.72
72428;BME280;60419;48.880;18.036;2024-01-15T14:13:41;97366.41;;;1.25;56.38
72428;BME280;60419;48.880;18.036;2024-01-15T14:16:26;97364.00;;;1.04;56.40
72428;BME280;60419;48.880;18.036;2024-01-15T14:19:11;97372.97;;;1.08;56.26
72428;BME280;60419;48.880;18.036;2024-01-15T14:21:57;97365.25;;;1.31;55.42
72428;BME280;60419;48.880;18.036;2024-01-15T14:24:42;97374.13;;;1.45;54.87
72428;BME280;60419;48.880;18.036;2024-01-15T14:27:28;97374.69;;;1.42;55.55
72428;BME280;60419;48.880;18.036;2024-01-15T14:30:14;97363.50;;;1.21;55.39
72428;BME280;60419;48.880;18.036;2024-01-15T14:33:01;97359.47;;;1.48;55.35
72428;BME280;60419;48.880;18.036;2024-01-15T14:35:46;97363.22;;;1.23;55.30